Time;durP1;ratioP1;P1;durP2;ratioP2;P2;SDS_P1;SDS_P2;PMS_P1;PMS_P2;Temp;Humidity;BMP_temperature;BMP_pressure;BME280_temperature;BME280_humidity;BME280_pressure;Samples;Min_cycle;Max_cycle;Signal;HPM_P1;HPM_P2
2023/12/26 14:02:59;;;;;;;;;;;;;;;10.42;67.08;100069.06;1086739;46;1693;-78
2023/12/26 14:04:17;;;;;;;;;;;;;;;10.33;67.53;100061.88;1088163;47;843;-78
2023/12/26 14:05:18;;;;;;;;;;;;;;;10.49;67.30;100066.66;1087710;54;898;-80
2023/12/26 14:06:22;;;;;;;;;;;;;;;10.37;67.60;100071.28;1086522;47;1485;-79
2023/12/26 14:07:23;;;;;;;;;;;;;;;10.24;67.87;100079.59;1087294;54;1047;-78
2023/12/26 14:08:24;;;;;;;;;;;;;;;10.40;67.59;100077.22;1086912;47;1050;-79
2023/12/26 14:09:27;;;;;;;;;;;;;;;10.47;67.19;100068.66;1086980;47;1358;-78
2023/12/26 14:10:28;;;;;;;;;;;;;;;10.42;67.53;100072.56;1087274;54;1129;-78
2023/12/26 14:11:31;;;;;;;;;;;;;;;10.43;67.13;100076.94;1085948;54;1446;-79
2023/12/26 14:12:32;;;;;;;;;;;;;;;10.37;67.54;100082.88;1085804;54;1843;-79
2023/12/26 14:13:33;;;;;;;;;;;;;;;10.39;67.55;100083.53;1086470;54;1118;-77
2023/12/26 14:14:38;;;;;;;;;;;;;;;10.36;67.32;100075.81;1086171;46;1015;-79
2023/12/26 14:15:40;;;;;;;;;;;;;;;10.45;67.37;100088.34;1086292;47;972;-79
2023/12/26 14:16:41;;;;;;;;;;;;;;;10.73;66.58;100088.41;1086821;47;1166;-77
2023/12/26 14:21:49;;;;;;;;;;;;;;;10.72;66.62;100102.78;1086132;54;845;-78
2023/12/26 14:22:51;;;;;;;;;;;;;;;10.74;66.20;100097.28;1086773;54;1062;-79
2023/12/26 14:23:51;;;;;;;;;;;;;;;10.91;65.65;100098.34;1087215;47;1160;-79
2023/12/26 14:24:54;;;;;;;;;;;;;;;10.62;66.67;100096.59;1087174;54;1146;-80
2023/12/26 14:26:13;;;;;;;;;;;;;;;10.83;65.91;100099.06;1087382;54;1145;-77
2023/12/26 14:27:16;;;;;;;;;;;;;;;10.67;66.54;100098.84;1086419;47;1011;-77
2023/12/26 14:28:17;;;;;;;;;;;;;;;10.71;66.19;100105.59;1087337;54;1122;-78
2023/12/26 14:29:20;;;;;;;;;;;;;;;10.77;66.01;100105.00;1086612;54;1629;-79
2023/12/26 14:30:21;;;;;;;;;;;;;;;10.67;66.52;100101.53;1085529;54;1124;-78
2023/12/26 14:31:24;;;;;;;;;;;;;;;10.75;66.32;100102.50;1086563;47;1147;-76
2023/12/26 14:32:25;;;;;;;;;;;;;;;10.66;66.47;100107.84;1086831;54;1851;-78
2023/12/26 14:33:29;;;;;;;;;;;;;;;10.63;66.65;100108.16;1086804;54;1193;-78
2023/12/26 14:34:30;;;;;;;;;;;;;;;10.77;66.16;100115.72;1088071;47;1059;-78
2023/12/26 14:35:30;;;;;;;;;;;;;;;10.76;66.30;100114.88;1088064;54;889;-77
2023/12/26 14:36:35;;;;;;;;;;;;;;;10.76;66.51;100120.22;1087158;47;1095;-79
2023/12/26 14:37:38;;;;;;;;;;;;;;;10.52;67.02;100122.50;1086878;47;1067;-78
2023/12/26 14:38:41;;;;;;;;;;;;;;;10.56;66.83;100123.91;1087185;47;1209;-78
2023/12/26 14:39:42;;;;;;;;;;;;;;;10.55;66.96;100127.56;1086282;46;1372;-79
2023/12/26 14:40:47;;;;;;;;;;;;;;;10.55;67.06;100122.22;1087352;54;1164;-78
2023/12/26 14:41:48;;;;;;;;;;;;;;;10.58;66.92;100127.31;1086081;47;1211;-78
2023/12/26 14:42:51;;;;;;;;;;;;;;;10.74;66.63;100121.34;1086728;54;1028;-79
2023/12/26 14:43:54;;;;;;;;;;;;;;;10.76;66.59;100128.25;1086257;54;1194;-78
2023/12/26 14:44:58;;;;;;;;;;;;;;;10.77;66.50;100132.59;1086045;54;1186;-77
2023/12/26 14:46:00;;;;;;;;;;;;;;;10.60;66.80;100133.31;1087470;54;1020;-76
2023/12/26 14:47:03;;;;;;;;;;;;;;;10.62;66.95;100134.03;1085928;54;1174;-79
2023/12/26 14:48:05;;;;;;;;;;;;;;;10.72;66.85;100131.34;1086407;54;1039;-77
2023/12/26 14:49:08;;;;;;;;;;;;;;;10.56;66.96;100135.44;1087215;54;1280;-78
2023/12/26 14:50:09;;;;;;;;;;;;;;;10.64;66.81;100140.09;1085905;47;1058;-77
2023/12/26 14:51:12;;;;;;;;;;;;;;;10.65;66.65;100144.44;1087289;54;1082;-76
2023/12/26 14:52:13;;;;;;;;;;;;;;;10.53;67.21;100145.56;1086349;54;1829;-77
2023/12/26 14:53:19;;;;;;;;;;;;;;;10.52;67.72;100138.53;1087293;47;1019;-78
2023/12/26 14:54:19;;;;;;;;;;;;;;;10.72;67.06;100142.06;1086536;54;1086;-79
2023/12/26 14:55:20;;;;;;;;;;;;;;;10.60;67.04;100150.22;1087103;54;1063;-79
2023/12/26 14:56:24;;;;;;;;;;;;;;;10.56;67.25;100140.78;1087217;47;936;-77
2023/12/26 14:57:25;;;;;;;;;;;;;;;10.61;67.40;100148.38;1084876;46;928;-78
2023/12/26 14:58:28;;;;;;;;;;;;;;;10.70;66.85;100147.53;1086073;47;1126;-79
2023/12/26 14:59:29;;;;;;;;;;;;;;;10.69;67.02;100145.00;1087077;54;1435;-78
2023/12/26 15:00:32;;;;;;;;;;;;;;;10.42;67.93;100155.44;1087584;54;1091;-78
2023/12/26 15:01:32;;;;;;;;;;;;;;;10.49;67.77;100152.19;1086074;54;1061;-79
2023/12/26 15:02:36;;;;;;;;;;;;;;;10.29;68.28;100154.84;1087093;46;1173;-79
2023/12/26 15:03:41;;;;;;;;;;;;;;;10.25;68.76;100158.78;1086913;47;1110;-78
2023/12/26 15:04:46;;;;;;;;;;;;;;;10.50;68.01;100159.22;1086772;46;1451;-78
2023/12/26 15:05:47;;;;;;;;;;;;;;;10.46;68.23;100155.97;1085898;54;1102;-78
2023/12/26 15:06:52;;;;;;;;;;;;;;;10.41;68.17;100148.41;1086997;47;983;-78
2023/12/26 15:07:53;;;;;;;;;;;;;;;10.38;68.32;100148.69;1085863;47;1104;-77
2023/12/26 15:08:59;;;;;;;;;;;;;;;10.34;68.44;100147.25;1087150;54;1351;-78
2023/12/26 15:10:00;;;;;;;;;;;;;;;10.29;68.80;100152.19;1086618;54;1158;-77
2023/12/26 15:11:03;;;;;;;;;;;;;;;10.30;68.84;100151.16;1086036;54;1112;-78
2023/12/26 15:12:04;;;;;;;;;;;;;;;10.35;68.37;100153.41;1086404;47;1303;-78
2023/12/26 15:13:07;;;;;;;;;;;;;;;10.26;68.77;100136.41;1087270;46;1850;-78
2023/12/26 15:14:10;;;;;;;;;;;;;;;10.34;68.89;100146.41;1087070;54;1163;-77
2023/12/26 15:15:13;;;;;;;;;;;;;;;10.33;68.90;100148.22;1087208;46;1114;-77
2023/12/26 15:16:16;;;;;;;;;;;;;;;10.13;69.62;100145.53;1086139;54;1079;-78
2023/12/26 15:17:19;;;;;;;;;;;;;;;10.03;70.10;100147.34;1085549;54;1065;-78
2023/12/26 15:18:20;;;;;;;;;;;;;;;10.02;70.23;100158.19;1085597;54;1083;-77
2023/12/26 15:19:24;;;;;;;;;;;;;;;10.14;69.57;100152.56;1085329;54;1358;-78
2023/12/26 15:20:26;;;;;;;;;;;;;;;10.15;69.79;100154.28;1086183;47;1138;-78
2023/12/26 15:21:29;;;;;;;;;;;;;;;9.98;70.17;100153.13;1086637;54;1008;-76
2023/12/26 15:22:30;;;;;;;;;;;;;;;10.08;70.30;100155.81;1086359;54;1287;-77
2023/12/26 15:23:34;;;;;;;;;;;;;;;10.14;70.52;100157.91;1086212;46;1205;-79
2023/12/26 15:24:37;;;;;;;;;;;;;;;9.97;71.08;100167.44;1085993;46;1467;-79
2023/12/26 15:25:42;;;;;;;;;;;;;;;10.01;71.02;100169.84;1086977;54;1158;-79
2023/12/26 15:26:44;;;;;;;;;;;;;;;9.96;71.03;100171.13;1085666;54;1186;-77
2023/12/26 15:27:48;;;;;;;;;;;;;;;10.02;71.03;100167.03;1086891;54;1106;-79
2023/12/26 15:28:49;;;;;;;;;;;;;;;10.09;70.77;100173.53;1087575;47;1383;-78
2023/12/26 15:29:49;;;;;;;;;;;;;;;10.05;71.14;100182.78;1087760;47;1111;-78
2023/12/26 15:31:00;;;;;;;;;;;;;;;10.18;70.86;100176.34;1087221;47;1240;-77
2023/12/26 15:32:00;;;;;;;;;;;;;;;10.09;71.06;100181.53;1087750;54;1051;-76
2023/12/26 15:33:05;;;;;;;;;;;;;;;9.94;71.62;100188.25;1087413;47;1897;-77
2023/12/26 15:34:06;;;;;;;;;;;;;;;9.93;71.72;100186.56;1087204;46;1004;-80
2023/12/26 15:35:08;;;;;;;;;;;;;;;9.73;72.59;100199.84;1086785;54;952;-80
2023/12/26 15:36:18;;;;;;;;;;;;;;;9.81;72.60;100196.50;1086606;47;1092;-80
2023/12/26 15:37:18;;;;;;;;;;;;;;;9.82;72.39;100200.88;1085976;54;1106;-77
2023/12/26 15:38:22;;;;;;;;;;;;;;;9.85;72.39;100205.94;1086178;54;1086;-77
2023/12/26 15:39:22;;;;;;;;;;;;;;;9.92;72.51;100201.75;1086760;47;1398;-78
2023/12/26 15:40:29;;;;;;;;;;;;;;;10.12;71.76;100207.13;1086589;47;1044;-80
2023/12/26 15:41:30;;;;;;;;;;;;;;;10.02;72.27;100209.78;1086017;54;1098;-79
2023/12/26 15:42:34;;;;;;;;;;;;;;;9.91;72.59;100209.91;1087105;46;1082;-80
2023/12/26 15:43:35;;;;;;;;;;;;;;;9.83;72.87;100210.56;1087290;47;1000;-79
2023/12/26 15:44:36;;;;;;;;;;;;;;;9.84;73.27;100214.94;1087597;47;1065;-80
2023/12/26 15:45:45;;;;;;;;;;;;;;;9.97;72.73;100209.34;1086087;47;1040;-80
2023/12/26 15:46:46;;;;;;;;;;;;;;;9.90;73.32;100218.91;1086069;47;1063;-78
2023/12/26 15:47:50;;;;;;;;;;;;;;;9.79;73.91;100207.34;1087226;54;1095;-78
2023/12/26 15:48:51;;;;;;;;;;;;;;;9.76;74.29;100212.94;1086845;54;1427;-79
2023/12/26 15:49:55;;;;;;;;;;;;;;;9.57;75.79;100219.06;1085622;54;1095;-79
2023/12/26 15:50:55;;;;;;;;;;;;;;;9.55;76.13;100204.13;1085551;47;1159;-80
2023/12/26 15:51:59;;;;;;;;;;;;;;;9.56;76.68;100205.84;1085459;47;1178;-80
2023/12/26 15:53:00;;;;;;;;;;;;;;;9.40;77.42;100209.03;1086477;54;1866;-79
2023/12/26 15:54:00;;;;;;;;;;;;;;;9.49;77.46;100206.38;1087263;47;1095;-79
2023/12/26 15:55:03;;;;;;;;;;;;;;;9.49;77.66;100211.72;1086611;52;1192;-79
2023/12/26 15:56:08;;;;;;;;;;;;;;;9.36;78.32;100214.59;1086259;54;1066;-79
2023/12/26 15:57:11;;;;;;;;;;;;;;;9.56;77.46;100213.84;1085996;47;1134;-78
2023/12/26 15:58:12;;;;;;;;;;;;;;;9.53;77.92;100212.28;1086240;54;1146;-76
2023/12/26 15:59:13;;;;;;;;;;;;;;;9.35;79.04;100225.44;1086661;47;1378;-77
2023/12/26 16:00:17;;;;;;;;;;;;;;;9.28;79.86;100218.91;1086192;47;1000;-77
2023/12/26 16:01:20;;;;;;;;;;;;;;;9.32;80.02;100220.34;1086524;47;1075;-78
2023/12/26 16:02:23;;;;;;;;;;;;;;;9.22;80.62;100206.94;1086464;47;972;-78
2023/12/26 16:03:24;;;;;;;;;;;;;;;9.13;81.47;100219.25;1086183;54;1147;-77
2023/12/26 16:04:28;;;;;;;;;;;;;;;9.24;80.75;100213.00;1086492;47;1090;-76
2023/12/26 16:05:30;;;;;;;;;;;;;;;9.29;80.73;100202.78;1086204;54;970;-79
2023/12/26 16:06:32;;;;;;;;;;;;;;;9.27;80.85;100212.75;1085702;51;1165;-80
2023/12/26 16:07:35;;;;;;;;;;;;;;;9.14;81.61;100202.28;1087240;54;1579;-78
2023/12/26 16:08:36;;;;;;;;;;;;;;;9.25;81.14;100204.00;1086697;54;979;-78
2023/12/26 16:09:39;;;;;;;;;;;;;;;9.29;80.69;100199.25;1086030;47;1358;-78
2023/12/26 16:10:40;;;;;;;;;;;;;;;9.39;80.20;100194.81;1087194;54;979;-79
2023/12/26 16:11:48;;;;;;;;;;;;;;;9.48;80.08;100201.19;1086219;54;1173;-77
2023/12/26 16:12:49;;;;;;;;;;;;;;;9.26;80.21;100205.72;1085744;47;1846;-79
2023/12/26 16:13:52;;;;;;;;;;;;;;;9.27;80.53;100207.41;1087220;47;1124;-78
2023/12/26 16:14:53;;;;;;;;;;;;;;;9.26;80.25;100210.22;1087223;47;1027;-79
2023/12/26 16:15:54;;;;;;;;;;;;;;;9.23;80.35;100216.63;1085902;54;1147;-78
2023/12/26 16:16:58;;;;;;;;;;;;;;;9.30;80.28;100214.28;1085634;54;1104;-77
2023/12/26 16:18:01;;;;;;;;;;;;;;;9.34;80.14;100213.06;1086746;47;1043;-79
2023/12/26 16:19:04;;;;;;;;;;;;;;;9.29;80.33;100204.59;1087800;54;1379;-79
2023/12/26 16:20:05;;;;;;;;;;;;;;;9.41;79.67;100206.22;1087976;54;1225;-78
2023/12/26 16:21:06;;;;;;;;;;;;;;;9.39;79.21;100200.16;1087772;47;1222;-79
2023/12/26 16:22:13;;;;;;;;;;;;;;;9.34;79.47;100202.38;1087991;47;1010;-78
2023/12/26 16:23:14;;;;;;;;;;;;;;;9.41;79.30;100214.22;1087897;54;1186;-78
2023/12/26 16:24:17;;;;;;;;;;;;;;;9.29;79.42;100207.25;1087740;54;1038;-78
2023/12/26 16:25:18;;;;;;;;;;;;;;;9.43;78.55;100214.94;1087359;47;1087;-77
2023/12/26 16:26:23;;;;;;;;;;;;;;;9.42;78.31;100209.69;1087062;54;1167;-78
2023/12/26 16:27:28;;;;;;;;;;;;;;;9.56;77.82;100205.84;1087784;54;1169;-80
2023/12/26 16:28:33;;;;;;;;;;;;;;;9.52;77.82;100221.28;1086861;47;1031;-77
2023/12/26 16:29:36;;;;;;;;;;;;;;;9.70;77.24;100213.50;1087824;47;1274;-78
2023/12/26 16:30:39;;;;;;;;;;;;;;;9.70;77.04;100217.97;1087509;47;894;-77
2023/12/26 16:31:40;;;;;;;;;;;;;;;9.64;76.90;100225.53;1087231;47;1127;-80
2023/12/26 16:32:43;;;;;;;;;;;;;;;9.55;77.41;100231.69;1087008;47;1849;-80
2023/12/26 16:33:44;;;;;;;;;;;;;;;9.45;77.34;100220.94;1086654;54;1197;-80
2023/12/26 16:34:48;;;;;;;;;;;;;;;9.45;77.73;100225.47;1085501;47;1115;-79
2023/12/26 16:35:49;;;;;;;;;;;;;;;9.50;77.78;100218.75;1085562;54;1614;-78
2023/12/26 16:36:53;;;;;;;;;;;;;;;9.56;76.96;100222.72;1085783;47;1489;-78
2023/12/26 16:37:54;;;;;;;;;;;;;;;9.58;76.93;100225.22;1087256;54;1028;-79
2023/12/26 16:38:57;;;;;;;;;;;;;;;9.68;76.18;100232.28;1087067;47;1303;-79
2023/12/26 16:39:59;;;;;;;;;;;;;;;9.70;76.25;100232.19;1087525;54;1091;-79
2023/12/26 16:41:05;;;;;;;;;;;;;;;9.66;76.22;100236.94;1087334;47;1058;-79
2023/12/26 16:42:10;;;;;;;;;;;;;;;9.58;76.79;100230.56;1086505;54;1067;-79
2023/12/26 16:43:14;;;;;;;;;;;;;;;9.62;76.38;100234.69;1086305;54;1119;-78
2023/12/26 16:44:15;;;;;;;;;;;;;;;9.48;76.86;100242.03;1087156;47;1135;-78
2023/12/26 16:45:20;;;;;;;;;;;;;;;9.60;76.60;100241.97;1086484;47;1032;-79
2023/12/26 16:46:22;;;;;;;;;;;;;;;9.73;75.99;100241.72;1086849;54;1090;-78
2023/12/26 16:47:26;;;;;;;;;;;;;;;9.72;75.71;100238.22;1086035;54;1055;-78
2023/12/26 16:48:27;;;;;;;;;;;;;;;9.65;76.30;100234.38;1086104;47;999;-79
2023/12/26 16:49:27;;;;;;;;;;;;;;;9.60;76.49;100239.28;1085973;47;1261;-80
2023/12/26 16:50:31;;;;;;;;;;;;;;;9.56;76.30;100232.53;1085113;47;1092;-79
2023/12/26 16:51:32;;;;;;;;;;;;;;;9.54;76.62;100239.84;1086567;54;1182;-78
2023/12/26 16:52:35;;;;;;;;;;;;;;;9.74;75.74;100235.41;1087619;54;947;-78
2023/12/26 16:53:37;;;;;;;;;;;;;;;9.78;75.81;100236.81;1087281;47;1848;-78
2023/12/26 16:54:40;;;;;;;;;;;;;;;9.57;76.17;100240.41;1087165;54;1036;-79
2023/12/26 16:55:47;;;;;;;;;;;;;;;9.60;75.96;100233.97;1086040;54;1098;-78
2023/12/26 16:56:51;;;;;;;;;;;;;;;9.65;75.68;100239.72;1087325;54;1099;-79
2023/12/26 16:57:54;;;;;;;;;;;;;;;9.58;75.96;100242.09;1087711;54;1118;-80
2023/12/26 16:59:00;;;;;;;;;;;;;;;9.55;76.24;100238.84;1086766;54;1403;-79
2023/12/26 17:00:02;;;;;;;;;;;;;;;9.51;76.06;100235.59;1087127;47;1099;-80
2023/12/26 17:01:03;;;;;;;;;;;;;;;9.66;75.72;100238.75;1085787;47;1091;-79
2023/12/26 17:02:07;;;;;;;;;;;;;;;9.64;75.43;100233.56;1087470;54;1103;-81
2023/12/26 17:03:07;;;;;;;;;;;;;;;9.64;75.58;100236.22;1085653;47;1023;-79
2023/12/26 17:04:11;;;;;;;;;;;;;;;9.63;75.24;100244.38;1085926;47;1061;-79
2023/12/26 17:05:11;;;;;;;;;;;;;;;9.63;75.50;100242.53;1086491;47;1083;-78
2023/12/26 17:06:15;;;;;;;;;;;;;;;9.54;75.69;100247.84;1086325;47;1007;-81
2023/12/26 17:07:16;;;;;;;;;;;;;;;9.55;75.28;100241.50;1086067;54;1158;-79
2023/12/26 17:08:19;;;;;;;;;;;;;;;9.47;75.62;100240.34;1086360;54;1117;-79
2023/12/26 17:09:20;;;;;;;;;;;;;;;9.50;75.79;100248.09;1086497;54;1445;-78
2023/12/26 17:10:23;;;;;;;;;;;;;;;9.54;75.70;100242.50;1087507;54;1031;-79
2023/12/26 17:11:24;;;;;;;;;;;;;;;9.49;75.45;100248.25;1086276;47;1059;-78
2023/12/26 17:12:28;;;;;;;;;;;;;;;9.52;75.68;100246.16;1085991;51;979;-79
2023/12/26 17:13:28;;;;;;;;;;;;;;;9.61;75.36;100244.50;1087017;46;1887;-78
2023/12/26 17:14:34;;;;;;;;;;;;;;;9.69;74.69;100238.50;1086921;47;984;-78
2023/12/26 17:15:36;;;;;;;;;;;;;;;9.70;74.72;100247.34;1087104;47;1124;-78
2023/12/26 17:16:40;;;;;;;;;;;;;;;9.50;75.40;100241.91;1087183;47;1075;-80
2023/12/26 17:17:41;;;;;;;;;;;;;;;9.51;75.63;100247.13;1086960;54;1055;-76
2023/12/26 17:18:44;;;;;;;;;;;;;;;9.61;75.14;100251.66;1086142;54;1015;-78
2023/12/26 17:19:45;;;;;;;;;;;;;;;9.60;75.36;100249.97;1086800;54;1319;-78
2023/12/26 17:20:48;;;;;;;;;;;;;;;9.55;75.74;100249.50;1086887;54;1134;-77
2023/12/26 17:21:50;;;;;;;;;;;;;;;9.51;75.84;100257.81;1086399;54;1151;-79
2023/12/26 17:22:54;;;;;;;;;;;;;;;9.52;75.85;100263.97;1086151;54;1129;-79
2023/12/26 17:23:55;;;;;;;;;;;;;;;9.48;75.73;100266.06;1085912;54;1076;-78
2023/12/26 17:25:07;;;;;;;;;;;;;;;9.38;76.17;100267.84;1086219;47;1063;-77
2023/12/26 17:26:09;;;;;;;;;;;;;;;9.57;75.94;100263.56;1086335;54;1026;-78
2023/12/26 17:27:12;;;;;;;;;;;;;;;9.66;75.56;100268.13;1085522;47;1091;-77
2023/12/26 17:28:13;;;;;;;;;;;;;;;9.50;75.67;100274.78;1086599;54;1059;-80
2023/12/26 17:29:16;;;;;;;;;;;;;;;9.59;75.93;100274.97;1086744;47;1427;-76
2023/12/26 17:30:20;;;;;;;;;;;;;;;9.66;75.55;100276.97;1087326;46;1098;-78
2023/12/26 17:31:23;;;;;;;;;;;;;;;9.69;75.47;100273.19;1085642;47;1072;-77
2023/12/26 17:32:24;;;;;;;;;;;;;;;9.55;76.04;100273.53;1086185;54;1166;-77
2023/12/26 17:33:27;;;;;;;;;;;;;;;9.70;75.55;100285.56;1085901;47;1874;-77
2023/12/26 17:34:29;;;;;;;;;;;;;;;9.82;75.09;100279.13;1086754;54;1142;-78
2023/12/26 17:35:32;;;;;;;;;;;;;;;9.79;75.25;100274.09;1086316;54;1048;-78
2023/12/26 17:36:34;;;;;;;;;;;;;;;9.72;75.66;100283.63;1086746;54;1028;-76
2023/12/26 17:37:38;;;;;;;;;;;;;;;9.72;75.68;100288.97;1086071;47;1048;-78
2023/12/26 17:38:38;;;;;;;;;;;;;;;9.83;75.42;100288.00;1087674;54;1082;-78
2023/12/26 17:39:42;;;;;;;;;;;;;;;9.87;75.44;100291.25;1087827;54;1420;-77
2023/12/26 17:42:17;;;;;;;;;;;;;;;9.78;75.58;100301.75;1087108;47;1045;-77
2023/12/26 17:43:18;;;;;;;;;;;;;;;9.70;75.86;100296.25;1087894;54;1173;-78
2023/12/26 17:44:21;;;;;;;;;;;;;;;9.75;75.71;100302.03;1087216;54;1138;-78
2023/12/26 17:45:25;;;;;;;;;;;;;;;9.63;76.07;100301.25;1087826;54;1021;-76
2023/12/26 17:46:29;;;;;;;;;;;;;;;9.51;76.59;100313.84;1085912;47;1031;-78
2023/12/26 17:47:31;;;;;;;;;;;;;;;9.59;76.43;100307.00;1086461;47;1613;-77
2023/12/26 17:48:34;;;;;;;;;;;;;;;9.60;76.53;100306.03;1086658;54;962;-75
2023/12/26 17:49:35;;;;;;;;;;;;;;;9.47;76.86;100309.75;1087421;54;1494;-76
2023/12/26 17:50:39;;;;;;;;;;;;;;;9.57;76.39;100304.47;1086608;47;954;-77
2023/12/26 17:51:40;;;;;;;;;;;;;;;9.59;76.26;100312.34;1086584;54;1126;-77
2023/12/26 17:52:43;;;;;;;;;;;;;;;9.71;76.00;100305.09;1087120;54;1074;-77
2023/12/26 17:53:44;;;;;;;;;;;;;;;9.71;76.05;100313.97;1086038;54;1858;-78
2023/12/26 17:54:48;;;;;;;;;;;;;;;9.66;76.04;100308.16;1086147;54;1538;-77
2023/12/26 17:55:50;;;;;;;;;;;;;;;9.54;76.26;100311.91;1086109;47;1011;-78
2023/12/26 17:56:54;;;;;;;;;;;;;;;9.57;76.47;100311.63;1086170;54;1079;-77
2023/12/26 17:57:54;;;;;;;;;;;;;;;9.70;75.79;100312.25;1086245;47;1043;-78
2023/12/26 17:58:58;;;;;;;;;;;;;;;9.71;75.71;100313.97;1085690;47;1398;-78
2023/12/26 17:59:58;;;;;;;;;;;;;;;9.79;75.43;100314.13;1085320;47;1177;-78
2023/12/26 18:01:04;;;;;;;;;;;;;;;9.59;76.10;100317.69;1085967;47;1308;-78
2023/12/26 18:02:05;;;;;;;;;;;;;;;9.66;76.24;100325.03;1085988;54;1122;-78
2023/12/26 18:03:08;;;;;;;;;;;;;;;9.63;76.03;100319.94;1085738;47;1077;-78
2023/12/26 18:04:09;;;;;;;;;;;;;;;9.57;76.41;100325.81;1087496;54;1107;-77
2023/12/26 18:05:13;;;;;;;;;;;;;;;9.64;76.17;100318.13;1087017;54;1071;-78
2023/12/26 18:06:14;;;;;;;;;;;;;;;9.58;76.23;100318.66;1085087;47;1118;-77
2023/12/26 18:07:17;;;;;;;;;;;;;;;9.62;76.16;100322.75;1086206;54;1087;-77
2023/12/26 18:08:18;;;;;;;;;;;;;;;9.73;75.61;100313.81;1085986;47;1083;-78
2023/12/26 18:09:22;;;;;;;;;;;;;;;9.78;75.37;100317.78;1086148;47;1317;-76
2023/12/26 18:10:27;;;;;;;;;;;;;;;9.77;75.22;100321.44;1086660;54;1126;-77
2023/12/26 18:11:30;;;;;;;;;;;;;;;9.77;75.17;100315.25;1087080;47;1016;-76
2023/12/26 18:12:31;;;;;;;;;;;;;;;9.67;75.38;100328.53;1086743;54;1477;-78
2023/12/26 18:13:36;;;;;;;;;;;;;;;9.63;75.67;100327.13;1086353;47;1854;-79
2023/12/26 18:14:37;;;;;;;;;;;;;;;9.57;75.54;100325.81;1087264;54;1110;-77
2023/12/26 18:15:41;;;;;;;;;;;;;;;9.59;75.67;100328.34;1086591;54;1095;-78
2023/12/26 18:16:45;;;;;;;;;;;;;;;9.61;75.74;100321.06;1087097;47;1096;-77
2023/12/26 18:17:49;;;;;;;;;;;;;;;9.74;75.26;100337.69;1086171;46;1146;-77
2023/12/26 18:18:49;;;;;;;;;;;;;;;9.79;74.86;100334.63;1087264;54;1107;-78
2023/12/26 18:19:54;;;;;;;;;;;;;;;9.80;74.72;100326.50;1085621;47;1210;-78
2023/12/26 18:20:55;;;;;;;;;;;;;;;9.75;75.25;100338.56;1087455;46;1107;-78
2023/12/26 18:21:59;;;;;;;;;;;;;;;9.82;74.58;100337.88;1086800;54;1110;-78
2023/12/26 18:22:59;;;;;;;;;;;;;;;9.84;74.66;100338.59;1085275;54;1149;-77
2023/12/26 18:24:00;;;;;;;;;;;;;;;9.65;74.95;100338.50;1085125;47;1170;-78
2023/12/26 18:25:03;;;;;;;;;;;;;;;9.60;75.50;100343.41;1085532;47;1334;-78
2023/12/26 18:26:06;;;;;;;;;;;;;;;9.62;75.29;100346.78;1087301;54;1178;-78
2023/12/26 18:27:09;;;;;;;;;;;;;;;9.67;75.07;100347.22;1087119;47;1008;-78
2023/12/26 18:28:10;;;;;;;;;;;;;;;9.80;74.76;100345.19;1087101;46;1162;-77
2023/12/26 18:29:13;;;;;;;;;;;;;;;9.90;74.25;100345.25;1087065;47;1648;-78
2023/12/26 18:30:14;;;;;;;;;;;;;;;9.89;74.07;100346.22;1087235;47;1033;-78
2023/12/26 18:31:16;;;;;;;;;;;;;;;9.88;74.01;100344.50;1087364;54;1039;-77
2023/12/26 18:32:22;;;;;;;;;;;;;;;9.88;74.04;100339.19;1087306;47;1055;-79
2023/12/26 18:33:22;;;;;;;;;;;;;;;9.93;73.83;100341.44;1086182;47;1325;-79
2023/12/26 18:34:26;;;;;;;;;;;;;;;9.99;73.40;100338.25;1087475;54;1070;-80
2023/12/26 18:35:27;;;;;;;;;;;;;;;10.02;73.68;100337.97;1086722;54;1371;-80
2023/12/26 18:36:31;;;;;;;;;;;;;;;9.99;73.65;100336.44;1086876;54;1011;-78
2023/12/26 18:37:32;;;;;;;;;;;;;;;9.91;73.54;100338.09;1086268;54;1094;-80
2023/12/26 18:38:35;;;;;;;;;;;;;;;9.99;73.42;100336.44;1086626;47;1125;-80
2023/12/26 18:39:36;;;;;;;;;;;;;;;9.96;73.63;100327.84;1087633;54;1348;-78
2023/12/26 18:40:39;;;;;;;;;;;;;;;9.94;73.50;100333.31;1087151;47;1180;-79
2023/12/26 18:41:41;;;;;;;;;;;;;;;9.94;73.27;100327.97;1087337;47;1154;-79
2023/12/26 18:42:44;;;;;;;;;;;;;;;9.72;73.65;100334.34;1087372;47;1067;-79
2023/12/26 18:43:45;;;;;;;;;;;;;;;9.65;74.41;100335.81;1085604;54;1031;-79
2023/12/26 18:44:49;;;;;;;;;;;;;;;9.66;74.29;100337.53;1085717;47;1588;-78
2023/12/26 18:45:52;;;;;;;;;;;;;;;9.66;73.80;100335.72;1085865;54;1023;-79
2023/12/26 18:46:56;;;;;;;;;;;;;;;9.67;74.06;100337.41;1087414;54;916;-79
2023/12/26 18:47:59;;;;;;;;;;;;;;;9.72;73.59;100330.81;1086625;54;1138;-80
2023/12/26 18:49:02;;;;;;;;;;;;;;;9.67;73.79;100339.22;1086281;54;1413;-78
2023/12/26 18:50:04;;;;;;;;;;;;;;;9.71;73.70;100343.31;1087346;47;1059;-77
2023/12/26 18:51:04;;;;;;;;;;;;;;;9.79;73.32;100351.53;1085544;50;1524;-77
2023/12/26 18:52:08;;;;;;;;;;;;;;;9.80;73.16;100355.88;1087580;47;1474;-78
2023/12/26 18:53:09;;;;;;;;;;;;;;;9.91;72.80;100359.44;1087465;54;1119;-79
2023/12/26 18:54:12;;;;;;;;;;;;;;;9.93;72.65;100352.13;1086870;47;1880;-79
2023/12/26 18:55:13;;;;;;;;;;;;;;;9.95;72.55;100353.72;1086338;47;1128;-78
2023/12/26 18:56:14;;;;;;;;;;;;;;;9.99;72.80;100354.28;1086626;46;1130;-80
2023/12/26 18:57:19;;;;;;;;;;;;;;;9.93;72.75;100363.69;1085365;47;1075;-80
2023/12/26 18:58:20;;;;;;;;;;;;;;;9.99;72.24;100357.78;1084879;47;1474;-79
2023/12/26 18:59:23;;;;;;;;;;;;;;;10.07;72.04;100359.81;1085029;47;1341;-80
2023/12/26 19:00:24;;;;;;;;;;;;;;;10.12;71.88;100362.91;1086350;54;1090;-79
2023/12/26 19:01:27;;;;;;;;;;;;;;;10.15;71.69;100370.66;1087321;54;1020;-78
2023/12/26 19:02:28;;;;;;;;;;;;;;;10.19;71.88;100371.22;1086587;54;1041;-77
2023/12/26 19:03:34;;;;;;;;;;;;;;;10.24;71.30;100370.81;1086535;54;1107;-78
2023/12/26 19:04:34;;;;;;;;;;;;;;;10.25;71.56;100365.34;1086075;47;1083;-79
2023/12/26 19:05:38;;;;;;;;;;;;;;;10.26;71.42;100355.50;1085118;47;1090;-80
2023/12/26 19:06:39;;;;;;;;;;;;;;;10.33;71.05;100363.84;1085913;47;1004;-79
2023/12/26 19:07:43;;;;;;;;;;;;;;;10.30;71.06;100360.47;1085376;47;1114;-80
2023/12/26 19:08:43;;;;;;;;;;;;;;;10.32;71.17;100365.66;1084932;47;1148;-79
2023/12/26 19:09:47;;;;;;;;;;;;;;;10.25;70.93;100367.19;1085019;46;1340;-80
2023/12/26 19:10:48;;;;;;;;;;;;;;;10.21;70.94;100365.75;1085341;54;1092;-79
2023/12/26 19:11:49;;;;;;;;;;;;;;;10.03;71.13;100363.72;1085853;54;1121;-79
2023/12/26 19:12:53;;;;;;;;;;;;;;;10.07;71.04;100359.81;1086748;54;1138;-79
2023/12/26 19:13:54;;;;;;;;;;;;;;;10.09;71.00;100357.00;1084922;46;1903;-79
2023/12/26 19:14:58;;;;;;;;;;;;;;;10.11;70.95;100360.38;1084968;54;1050;-79
2023/12/26 19:16:00;;;;;;;;;;;;;;;10.13;70.95;100361.94;1086904;54;990;-79
2023/12/26 19:17:09;;;;;;;;;;;;;;;10.16;71.02;100352.78;1085681;54;1123;-79
2023/12/26 19:18:10;;;;;;;;;;;;;;;10.18;70.87;100350.84;1086200;54;1418;-79
2023/12/26 19:19:17;;;;;;;;;;;;;;;10.14;70.72;100347.59;1087350;54;1294;-79
2023/12/26 19:20:18;;;;;;;;;;;;;;;10.12;70.95;100344.19;1086351;54;1100;-79
2023/12/26 19:21:21;;;;;;;;;;;;;;;10.07;70.62;100341.09;1087033;47;1058;-79
2023/12/26 19:22:22;;;;;;;;;;;;;;;10.08;70.77;100337.47;1087326;47;1104;-78
2023/12/26 19:23:25;;;;;;;;;;;;;;;10.03;70.79;100345.00;1086055;47;1015;-79
2023/12/26 19:24:26;;;;;;;;;;;;;;;10.01;71.08;100340.78;1085913;47;1169;-80
2023/12/26 19:25:29;;;;;;;;;;;;;;;9.94;71.32;100348.47;1086623;47;1619;-78
2023/12/26 19:26:30;;;;;;;;;;;;;;;9.91;71.51;100348.78;1086378;47;1648;-80
2023/12/26 19:27:34;;;;;;;;;;;;;;;9.91;71.38;100354.09;1085616;54;1191;-79
2023/12/26 19:28:35;;;;;;;;;;;;;;;9.86;71.56;100356.31;1087501;47;1056;-78
2023/12/26 19:29:38;;;;;;;;;;;;;;;9.84;71.66;100353.78;1085928;54;1141;-80
2023/12/26 19:30:40;;;;;;;;;;;;;;;9.66;72.02;100356.22;1085357;54;1099;-80
2023/12/26 19:31:43;;;;;;;;;;;;;;;9.66;72.02;100345.53;1085694;47;1281;-78
2023/12/26 19:32:44;;;;;;;;;;;;;;;9.60;72.28;100341.56;1086473;47;1032;-80
2023/12/26 19:33:47;;;;;;;;;;;;;;;9.69;72.01;100350.63;1086275;47;1896;-79
2023/12/26 19:34:51;;;;;;;;;;;;;;;9.69;72.16;100355.94;1086883;47;1544;-79
2023/12/26 19:35:55;;;;;;;;;;;;;;;9.72;72.02;100363.72;1087153;54;1389;-78
2023/12/26 19:36:56;;;;;;;;;;;;;;;9.74;71.98;100361.72;1085268;54;1156;-80
2023/12/26 19:38:00;;;;;;;;;;;;;;;9.71;72.15;100361.16;1087523;54;1114;-79